sensor_id;sensor_type;location;lat;lon;timestamp;P1;durP1;ratioP1;P2;durP2;ratioP2
27566;SDS011;15006;48.584;9.186;2023-07-24T00:00:24;9.48;;;7.85;;
27566;SDS011;15006;48.584;9.186;2023-07-24T00:02:51;7.57;;;6.88;;
27566;SDS011;15006;48.584;9.186;2023-07-24T00:05:20;7.65;;;6.95;;
27566;SDS011;15006;48.584;9.186;2023-07-24T00:07:46;9.48;;;6.50;;
27566;SDS011;15006;48.584;9.186;2023-07-24T00:10:13;7.40;;;6.70;;
27566;SDS011;15006;48.584;9.186;2023-07-24T00:12:39;8.32;;;7.43;;
27566;SDS011;15006;48.584;9.186;2023-07-24T00:15:06;7.60;;;6.90;;
27566;SDS011;15006;48.584;9.186;2023-07-24T00:17:32;8.00;;;7.28;;
27566;SDS011;15006;48.584;9.186;2023-07-24T00:20:01;9.52;;;7.40;;
27566;SDS011;15006;48.584;9.186;2023-07-24T00:22:28;8.15;;;7.25;;
27566;SDS011;15006;48.584;9.186;2023-07-24T00:24:54;7.78;;;7.07;;
27566;SDS011;15006;48.584;9.186;2023-07-24T00:27:20;7.82;;;7.13;;
27566;SDS011;15006;48.584;9.186;2023-07-24T00:29:46;7.95;;;7.15;;
27566;SDS011;15006;48.584;9.186;2023-07-24T00:32:11;7.57;;;6.78;;
27566;SDS011;15006;48.584;9.186;2023-07-24T00:34:37;7.97;;;6.80;;
27566;SDS011;15006;48.584;9.186;2023-07-24T00:37:03;7.88;;;7.13;;
27566;SDS011;15006;48.584;9.186;2023-07-24T00:39:30;8.00;;;7.13;;
27566;SDS011;15006;48.584;9.186;2023-07-24T00:41:56;8.07;;;7.28;;
27566;SDS011;15006;48.584;9.186;2023-07-24T00:44:22;7.78;;;7.07;;
27566;SDS011;15006;48.584;9.186;2023-07-24T00:46:49;7.40;;;6.80;;
27566;SDS011;15006;48.584;9.186;2023-07-24T00:49:15;7.80;;;6.78;;
27566;SDS011;15006;48.584;9.186;2023-07-24T00:51:42;8.82;;;7.10;;
27566;SDS011;15006;48.584;9.186;2023-07-24T00:54:10;8.15;;;7.07;;
27566;SDS011;15006;48.584;9.186;2023-07-24T00:56:37;8.30;;;7.43;;
27566;SDS011;15006;48.584;9.186;2023-07-24T00:59:04;7.40;;;6.78;;
27566;SDS011;15006;48.584;9.186;2023-07-24T01:01:30;7.70;;;6.93;;
27566;SDS011;15006;48.584;9.186;2023-07-24T01:03:57;8.20;;;7.43;;
27566;SDS011;15006;48.584;9.186;2023-07-24T01:06:23;7.75;;;6.97;;
27566;SDS011;15006;48.584;9.186;2023-07-24T01:08:50;8.73;;;7.60;;
27566;SDS011;15006;48.584;9.186;2023-07-24T01:11:21;8.10;;;7.30;;
27566;SDS011;15006;48.584;9.186;2023-07-24T01:14:13;7.93;;;7.22;;
27566;SDS011;15006;48.584;9.186;2023-07-24T01:16:53;8.52;;;7.10;;
27566;SDS011;15006;48.584;9.186;2023-07-24T01:27:45;8.38;;;7.43;;
27566;SDS011;15006;48.584;9.186;2023-07-24T01:30:12;7.45;;;6.75;;
27566;SDS011;15006;48.584;9.186;2023-07-24T01:32:45;7.78;;;6.93;;
27566;SDS011;15006;48.584;9.186;2023-07-24T01:35:11;7.72;;;7.00;;
27566;SDS011;15006;48.584;9.186;2023-07-24T01:37:37;8.10;;;7.30;;
27566;SDS011;15006;48.584;9.186;2023-07-24T01:40:08;8.63;;;7.38;;
27566;SDS011;15006;48.584;9.186;2023-07-24T01:45:03;8.60;;;7.72;;
27566;SDS011;15006;48.584;9.186;2023-07-24T01:47:32;9.98;;;7.68;;
27566;SDS011;15006;48.584;9.186;2023-07-24T01:49:58;8.90;;;7.53;;
27566;SDS011;15006;48.584;9.186;2023-07-24T01:52:24;11.60;;;7.97;;
27566;SDS011;15006;48.584;9.186;2023-07-24T01:54:51;8.43;;;7.63;;
27566;SDS011;15006;48.584;9.186;2023-07-24T01:57:17;8.40;;;7.60;;
27566;SDS011;15006;48.584;9.186;2023-07-24T01:59:43;9.48;;;7.82;;
27566;SDS011;15006;48.584;9.186;2023-07-24T02:02:10;8.32;;;7.38;;
27566;SDS011;15006;48.584;9.186;2023-07-24T02:04:36;9.88;;;8.27;;
27566;SDS011;15006;48.584;9.186;2023-07-24T02:07:02;8.43;;;7.63;;
27566;SDS011;15006;48.584;9.186;2023-07-24T02:09:28;12.88;;;7.32;;
27566;SDS011;15006;48.584;9.186;2023-07-24T02:11:54;10.00;;;8.15;;
27566;SDS011;15006;48.584;9.186;2023-07-24T02:14:20;9.77;;;7.55;;
27566;SDS011;15006;48.584;9.186;2023-07-24T02:16:46;7.93;;;7.13;;
27566;SDS011;15006;48.584;9.186;2023-07-24T02:19:12;11.02;;;8.07;;
27566;SDS011;15006;48.584;9.186;2023-07-24T02:21:39;8.00;;;7.20;;
27566;SDS011;15006;48.584;9.186;2023-07-24T02:24:06;9.65;;;7.80;;
27566;SDS011;15006;48.584;9.186;2023-07-24T02:26:32;8.80;;;7.90;;
27566;SDS011;15006;48.584;9.186;2023-07-24T02:28:58;9.90;;;7.60;;
27566;SDS011;15006;48.584;9.186;2023-07-24T02:31:25;7.38;;;6.68;;
27566;SDS011;15006;48.584;9.186;2023-07-24T02:33:51;8.85;;;7.60;;
27566;SDS011;15006;48.584;9.186;2023-07-24T02:36:17;9.38;;;7.40;;
27566;SDS011;15006;48.584;9.186;2023-07-24T02:38:43;12.75;;;7.72;;
27566;SDS011;15006;48.584;9.186;2023-07-24T02:41:09;10.05;;;7.75;;
27566;SDS011;15006;48.584;9.186;2023-07-24T02:43:35;8.45;;;7.65;;
27566;SDS011;15006;48.584;9.186;2023-07-24T02:46:02;9.55;;;7.80;;
27566;SDS011;15006;48.584;9.186;2023-07-24T02:48:28;10.07;;;7.28;;
27566;SDS011;15006;48.584;9.186;2023-07-24T02:50:54;9.40;;;7.68;;
27566;SDS011;15006;48.584;9.186;2023-07-24T02:53:20;9.05;;;8.15;;
27566;SDS011;15006;48.584;9.186;2023-07-24T02:55:46;9.13;;;7.10;;
27566;SDS011;15006;48.584;9.186;2023-07-24T02:58:13;8.55;;;7.75;;
27566;SDS011;15006;48.584;9.186;2023-07-24T03:00:39;10.57;;;7.90;;
27566;SDS011;15006;48.584;9.186;2023-07-24T03:03:06;10.75;;;8.13;;
27566;SDS011;15006;48.584;9.186;2023-07-24T03:05:35;8.57;;;7.68;;
27566;SDS011;15006;48.584;9.186;2023-07-24T03:08:01;8.73;;;7.78;;
27566;SDS011;15006;48.584;9.186;2023-07-24T03:10:28;8.93;;;7.53;;
27566;SDS011;15006;48.584;9.186;2023-07-24T03:12:54;9.90;;;7.80;;
27566;SDS011;15006;48.584;9.186;2023-07-24T03:15:20;10.07;;;7.63;;
27566;SDS011;15006;48.584;9.186;2023-07-24T03:17:46;9.82;;;7.88;;
27566;SDS011;15006;48.584;9.186;2023-07-24T03:20:16;8.32;;;7.53;;
27566;SDS011;15006;48.584;9.186;2023-07-24T03:22:44;9.57;;;7.65;;
27566;SDS011;15006;48.584;9.186;2023-07-24T03:25:10;10.30;;;7.97;;
27566;SDS011;15006;48.584;9.186;2023-07-24T03:27:36;10.77;;;8.20;;
27566;SDS011;15006;48.584;9.186;2023-07-24T03:30:03;9.73;;;7.93;;
27566;SDS011;15006;48.584;9.186;2023-07-24T03:32:30;9.63;;;7.90;;
27566;SDS011;15006;48.584;9.186;2023-07-24T03:34:56;9.27;;;7.57;;
27566;SDS011;15006;48.584;9.186;2023-07-24T03:37:22;12.02;;;7.93;;
27566;SDS011;15006;48.584;9.186;2023-07-24T03:39:48;9.23;;;7.90;;
27566;SDS011;15006;48.584;9.186;2023-07-24T03:42:23;9.00;;;7.82;;
27566;SDS011;15006;48.584;9.186;2023-07-24T03:44:55;10.23;;;8.68;;
27566;SDS011;15006;48.584;9.186;2023-07-24T03:47:22;11.13;;;8.15;;
27566;SDS011;15006;48.584;9.186;2023-07-24T03:49:49;10.25;;;8.18;;
27566;SDS011;15006;48.584;9.186;2023-07-24T03:52:15;10.18;;;7.63;;
27566;SDS011;15006;48.584;9.186;2023-07-24T03:54:41;8.80;;;7.63;;
27566;SDS011;15006;48.584;9.186;2023-07-24T03:57:08;8.15;;;7.43;;
27566;SDS011;15006;48.584;9.186;2023-07-24T03:59:34;9.65;;;7.88;;
27566;SDS011;15006;48.584;9.186;2023-07-24T04:02:00;9.43;;;8.10;;
27566;SDS011;15006;48.584;9.186;2023-07-24T04:04:26;10.00;;;7.78;;
27566;SDS011;15006;48.584;9.186;2023-07-24T04:06:52;10.57;;;8.07;;
27566;SDS011;15006;48.584;9.186;2023-07-24T04:09:18;8.45;;;7.57;;
27566;SDS011;15006;48.584;9.186;2023-07-24T04:11:44;11.05;;;8.10;;
27566;SDS011;15006;48.584;9.186;2023-07-24T04:14:10;8.43;;;7.63;;
27566;SDS011;15006;48.584;9.186;2023-07-24T04:16:37;11.32;;;8.18;;
27566;SDS011;15006;48.584;9.186;2023-07-24T04:19:03;10.13;;;7.78;;
27566;SDS011;15006;48.584;9.186;2023-07-24T04:21:29;8.52;;;7.28;;
27566;SDS011;15006;48.584;9.186;2023-07-24T04:23:55;8.73;;;7.60;;
27566;SDS011;15006;48.584;9.186;2023-07-24T04:26:21;7.78;;;6.97;;
27566;SDS011;15006;48.584;9.186;2023-07-24T04:28:47;9.13;;;7.57;;
27566;SDS011;15006;48.584;9.186;2023-07-24T04:31:13;10.27;;;7.57;;
27566;SDS011;15006;48.584;9.186;2023-07-24T04:33:39;8.38;;;7.30;;
27566;SDS011;15006;48.584;9.186;2023-07-24T04:36:05;10.52;;;8.00;;
27566;SDS011;15006;48.584;9.186;2023-07-24T04:38:31;8.32;;;7.32;;
27566;SDS011;15006;48.584;9.186;2023-07-24T04:40:59;12.20;;;8.20;;
27566;SDS011;15006;48.584;9.186;2023-07-24T04:43:27;8.48;;;7.57;;
27566;SDS011;15006;48.584;9.186;2023-07-24T04:45:54;9.43;;;8.10;;
27566;SDS011;15006;48.584;9.186;2023-07-24T04:48:20;8.95;;;8.05;;
27566;SDS011;15006;48.584;9.186;2023-07-24T04:50:46;9.73;;;7.75;;
27566;SDS011;15006;48.584;9.186;2023-07-24T04:53:18;7.45;;;6.75;;
27566;SDS011;15006;48.584;9.186;2023-07-24T04:55:45;7.68;;;6.97;;
27566;SDS011;15006;48.584;9.186;2023-07-24T04:58:12;7.90;;;7.20;;
27566;SDS011;15006;48.584;9.186;2023-07-24T05:00:38;8.45;;;7.45;;
27566;SDS011;15006;48.584;9.186;2023-07-24T05:03:04;8.25;;;7.43;;
27566;SDS011;15006;48.584;9.186;2023-07-24T05:05:31;10.23;;;7.35;;
27566;SDS011;15006;48.584;9.186;2023-07-24T05:07:57;16.02;;;7.90;;
27566;SDS011;15006;48.584;9.186;2023-07-24T05:10:23;8.75;;;7.75;;
27566;SDS011;15006;48.584;9.186;2023-07-24T05:12:49;11.23;;;8.02;;
27566;SDS011;15006;48.584;9.186;2023-07-24T05:15:15;10.43;;;7.97;;
27566;SDS011;15006;48.584;9.186;2023-07-24T05:17:42;7.82;;;7.03;;
27566;SDS011;15006;48.584;9.186;2023-07-24T05:20:09;7.63;;;6.55;;
27566;SDS011;15006;48.584;9.186;2023-07-24T05:22:37;10.15;;;7.35;;
27566;SDS011;15006;48.584;9.186;2023-07-24T05:25:03;8.98;;;7.82;;
27566;SDS011;15006;48.584;9.186;2023-07-24T05:27:29;8.20;;;7.25;;
27566;SDS011;15006;48.584;9.186;2023-07-24T05:29:55;13.93;;;7.30;;
27566;SDS011;15006;48.584;9.186;2023-07-24T05:32:21;15.63;;;7.75;;
27566;SDS011;15006;48.584;9.186;2023-07-24T05:34:47;11.95;;;7.72;;
27566;SDS011;15006;48.584;9.186;2023-07-24T05:37:13;16.05;;;7.40;;
27566;SDS011;15006;48.584;9.186;2023-07-24T05:39:39;10.15;;;8.35;;
27566;SDS011;15006;48.584;9.186;2023-07-24T05:42:05;12.18;;;8.23;;
27566;SDS011;15006;48.584;9.186;2023-07-24T05:44:31;8.73;;;7.88;;
27566;SDS011;15006;48.584;9.186;2023-07-24T05:46:58;9.13;;;7.15;;
27566;SDS011;15006;48.584;9.186;2023-07-24T05:49:24;8.27;;;7.55;;
27566;SDS011;15006;48.584;9.186;2023-07-24T05:51:51;8.30;;;7.43;;
27566;SDS011;15006;48.584;9.186;2023-07-24T05:54:19;10.27;;;7.85;;
27566;SDS011;15006;48.584;9.186;2023-07-24T05:56:45;9.98;;;7.90;;
27566;SDS011;15006;48.584;9.186;2023-07-24T05:59:11;8.57;;;7.65;;
27566;SDS011;15006;48.584;9.186;2023-07-24T06:01:37;9.23;;;7.63;;
27566;SDS011;15006;48.584;9.186;2023-07-24T06:04:03;8.15;;;7.10;;
27566;SDS011;15006;48.584;9.186;2023-07-24T06:06:30;9.68;;;7.95;;
27566;SDS011;15006;48.584;9.186;2023-07-24T06:08:56;8.43;;;7.60;;
27566;SDS011;15006;48.584;9.186;2023-07-24T06:11:23;8.48;;;7.38;;
27566;SDS011;15006;48.584;9.186;2023-07-24T06:13:48;8.73;;;7.85;;
27566;SDS011;15006;48.584;9.186;2023-07-24T06:16:15;9.73;;;7.88;;
27566;SDS011;15006;48.584;9.186;2023-07-24T06:18:41;8.38;;;7.55;;
27566;SDS011;15006;48.584;9.186;2023-07-24T06:21:08;17.45;;;7.93;;
27566;SDS011;15006;48.584;9.186;2023-07-24T06:23:34;8.20;;;7.40;;
27566;SDS011;15006;48.584;9.186;2023-07-24T06:26:00;8.57;;;7.10;;
27566;SDS011;15006;48.584;9.186;2023-07-24T06:28:26;8.60;;;7.70;;
27566;SDS011;15006;48.584;9.186;2023-07-24T06:30:54;11.00;;;7.57;;
27566;SDS011;15006;48.584;9.186;2023-07-24T06:33:20;8.38;;;7.60;;
27566;SDS011;15006;48.584;9.186;2023-07-24T06:35:49;8.45;;;7.45;;
27566;SDS011;15006;48.584;9.186;2023-07-24T06:38:16;9.07;;;7.55;;
27566;SDS011;15006;48.584;9.186;2023-07-24T06:40:42;8.63;;;7.72;;
27566;SDS011;15006;48.584;9.186;2023-07-24T06:43:08;7.88;;;7.07;;
27566;SDS011;15006;48.584;9.186;2023-07-24T06:45:34;9.82;;;7.93;;
27566;SDS011;15006;48.584;9.186;2023-07-24T06:48:00;12.32;;;7.72;;
27566;SDS011;15006;48.584;9.186;2023-07-24T06:50:26;9.13;;;8.23;;
27566;SDS011;15006;48.584;9.186;2023-07-24T06:52:52;8.90;;;7.95;;
27566;SDS011;15006;48.584;9.186;2023-07-24T06:55:19;9.90;;;7.93;;
27566;SDS011;15006;48.584;9.186;2023-07-24T06:57:46;9.57;;;7.90;;
27566;SDS011;15006;48.584;9.186;2023-07-24T07:00:12;8.82;;;7.47;;
27566;SDS011;15006;48.584;9.186;2023-07-24T07:02:39;8.50;;;7.50;;
27566;SDS011;15006;48.584;9.186;2023-07-24T07:05:05;10.10;;;7.80;;
27566;SDS011;15006;48.584;9.186;2023-07-24T07:07:31;9.38;;;8.27;;
27566;SDS011;15006;48.584;9.186;2023-07-24T07:09:57;10.95;;;7.40;;
27566;SDS011;15006;48.584;9.186;2023-07-24T07:12:23;10.45;;;8.10;;
27566;SDS011;15006;48.584;9.186;2023-07-24T07:14:49;8.50;;;7.32;;
27566;SDS011;15006;48.584;9.186;2023-07-24T07:17:15;9.38;;;8.38;;
27566;SDS011;15006;48.584;9.186;2023-07-24T07:19:41;8.55;;;7.47;;
27566;SDS011;15006;48.584;9.186;2023-07-24T07:22:07;8.50;;;7.65;;
27566;SDS011;15006;48.584;9.186;2023-07-24T07:24:33;8.60;;;7.70;;
27566;SDS011;15006;48.584;9.186;2023-07-24T07:26:59;10.82;;;8.77;;
27566;SDS011;15006;48.584;9.186;2023-07-24T07:29:25;8.98;;;8.00;;
27566;SDS011;15006;48.584;9.186;2023-07-24T07:31:51;10.77;;;6.93;;
27566;SDS011;15006;48.584;9.186;2023-07-24T07:34:17;8.38;;;7.47;;
27566;SDS011;15006;48.584;9.186;2023-07-24T07:36:43;7.82;;;7.13;;
27566;SDS011;15006;48.584;9.186;2023-07-24T07:39:08;11.30;;;6.97;;
27566;SDS011;15006;48.584;9.186;2023-07-24T07:41:34;9.63;;;7.38;;
27566;SDS011;15006;48.584;9.186;2023-07-24T07:44:00;8.82;;;7.13;;
27566;SDS011;15006;48.584;9.186;2023-07-24T07:46:26;7.30;;;6.60;;
27566;SDS011;15006;48.584;9.186;2023-07-24T07:48:52;9.65;;;7.28;;
27566;SDS011;15006;48.584;9.186;2023-07-24T07:51:18;7.30;;;6.60;;
27566;SDS011;15006;48.584;9.186;2023-07-24T07:53:44;10.13;;;7.25;;
27566;SDS011;15006;48.584;9.186;2023-07-24T07:56:10;8.02;;;6.95;;
27566;SDS011;15006;48.584;9.186;2023-07-24T07:58:36;7.55;;;6.90;;
27566;SDS011;15006;48.584;9.186;2023-07-24T08:01:03;7.00;;;6.30;;
27566;SDS011;15006;48.584;9.186;2023-07-24T08:03:30;10.68;;;6.80;;
27566;SDS011;15006;48.584;9.186;2023-07-24T08:05:57;6.95;;;6.10;;
27566;SDS011;15006;48.584;9.186;2023-07-24T08:25:56;8.65;;;6.10;;
27566;SDS011;15006;48.584;9.186;2023-07-24T08:28:22;7.88;;;6.53;;
27566;SDS011;15006;48.584;9.186;2023-07-24T08:30:58;7.15;;;6.43;;
27566;SDS011;15006;48.584;9.186;2023-07-24T08:33:24;10.57;;;6.85;;
27566;SDS011;15006;48.584;9.186;2023-07-24T08:36:03;8.50;;;6.43;;
27566;SDS011;15006;48.584;9.186;2023-07-24T08:38:31;6.82;;;6.18;;
27566;SDS011;15006;48.584;9.186;2023-07-24T08:41:08;7.25;;;6.55;;
27566;SDS011;15006;48.584;9.186;2023-07-24T08:43:37;6.85;;;6.22;;
27566;SDS011;15006;48.584;9.186;2023-07-24T08:46:07;8.77;;;6.75;;
27566;SDS011;15006;48.584;9.186;2023-07-24T08:48:35;6.32;;;5.82;;
27566;SDS011;15006;48.584;9.186;2023-07-24T08:51:07;13.43;;;6.43;;
27566;SDS011;15006;48.584;9.186;2023-07-24T08:53:36;8.27;;;6.82;;
27566;SDS011;15006;48.584;9.186;2023-07-24T08:56:05;7.13;;;6.05;;
27566;SDS011;15006;48.584;9.186;2023-07-24T08:58:33;7.03;;;6.38;;
27566;SDS011;15006;48.584;9.186;2023-07-24T09:01:00;6.07;;;5.57;;
27566;SDS011;15006;48.584;9.186;2023-07-24T09:03:28;8.20;;;6.25;;
27566;SDS011;15006;48.584;9.186;2023-07-24T09:05:54;16.05;;;6.50;;
27566;SDS011;15006;48.584;9.186;2023-07-24T09:08:36;15.50;;;6.28;;
27566;SDS011;15006;48.584;9.186;2023-07-24T09:11:06;8.38;;;5.40;;
27566;SDS011;15006;48.584;9.186;2023-07-24T09:13:36;8.27;;;5.63;;
27566;SDS011;15006;48.584;9.186;2023-07-24T09:16:07;6.38;;;5.50;;
27566;SDS011;15006;48.584;9.186;2023-07-24T09:18:40;5.32;;;4.93;;
27566;SDS011;15006;48.584;9.186;2023-07-24T09:21:09;5.55;;;5.05;;
27566;SDS011;15006;48.584;9.186;2023-07-24T09:23:38;4.90;;;4.50;;
27566;SDS011;15006;48.584;9.186;2023-07-24T09:26:08;5.32;;;4.82;;
27566;SDS011;15006;48.584;9.186;2023-07-24T09:28:35;4.65;;;4.32;;
27566;SDS011;15006;48.584;9.186;2023-07-24T09:31:02;5.00;;;4.60;;
27566;SDS011;15006;48.584;9.186;2023-07-24T09:33:36;4.85;;;4.30;;
27566;SDS011;15006;48.584;9.186;2023-07-24T09:36:05;5.22;;;4.70;;
27566;SDS011;15006;48.584;9.186;2023-07-24T09:38:33;4.50;;;4.20;;
27566;SDS011;15006;48.584;9.186;2023-07-24T09:41:04;6.43;;;4.90;;
27566;SDS011;15006;48.584;9.186;2023-07-24T09:43:31;5.05;;;4.65;;
27566;SDS011;15006;48.584;9.186;2023-07-24T09:45:58;6.65;;;5.00;;
27566;SDS011;15006;48.584;9.186;2023-07-24T09:48:24;5.20;;;4.80;;
27566;SDS011;15006;48.584;9.186;2023-07-24T09:50:55;5.82;;;5.32;;
27566;SDS011;15006;48.584;9.186;2023-07-24T09:53:33;5.45;;;5.00;;
27566;SDS011;15006;48.584;9.186;2023-07-24T09:56:09;5.40;;;4.95;;
27566;SDS011;15006;48.584;9.186;2023-07-24T09:58:39;5.28;;;4.85;;
27566;SDS011;15006;48.584;9.186;2023-07-24T10:01:07;5.03;;;4.63;;
27566;SDS011;15006;48.584;9.186;2023-07-24T10:03:49;6.80;;;4.70;;
27566;SDS011;15006;48.584;9.186;2023-07-24T10:08:44;8.10;;;5.00;;
27566;SDS011;15006;48.584;9.186;2023-07-24T10:11:13;4.82;;;4.53;;
27566;SDS011;15006;48.584;9.186;2023-07-24T10:13:40;6.72;;;5.13;;
27566;SDS011;15006;48.584;9.186;2023-07-24T10:16:07;6.30;;;5.38;;
27566;SDS011;15006;48.584;9.186;2023-07-24T10:18:34;6.07;;;5.30;;
27566;SDS011;15006;48.584;9.186;2023-07-24T10:21:08;5.95;;;5.32;;
27566;SDS011;15006;48.584;9.186;2023-07-24T10:23:36;5.57;;;5.07;;
27566;SDS011;15006;48.584;9.186;2023-07-24T10:26:07;5.10;;;4.70;;
27566;SDS011;15006;48.584;9.186;2023-07-24T10:28:34;6.15;;;5.18;;
27566;SDS011;15006;48.584;9.186;2023-07-24T10:31:04;6.20;;;5.68;;
27566;SDS011;15006;48.584;9.186;2023-07-24T10:33:44;10.63;;;5.72;;
27566;SDS011;15006;48.584;9.186;2023-07-24T10:36:11;5.95;;;5.45;;
27566;SDS011;15006;48.584;9.186;2023-07-24T10:38:40;5.97;;;5.47;;
27566;SDS011;15006;48.584;9.186;2023-07-24T10:41:08;6.10;;;5.60;;
27566;SDS011;15006;48.584;9.186;2023-07-24T10:46:12;5.30;;;4.90;;
27566;SDS011;15006;48.584;9.186;2023-07-24T10:49:00;6.72;;;5.80;;
27566;SDS011;15006;48.584;9.186;2023-07-24T10:51:28;6.45;;;5.60;;
27566;SDS011;15006;48.584;9.186;2023-07-24T10:53:57;6.85;;;6.07;;
27566;SDS011;15006;48.584;9.186;2023-07-24T10:56:24;12.38;;;6.03;;
27566;SDS011;15006;48.584;9.186;2023-07-24T10:58:50;6.00;;;5.35;;
27566;SDS011;15006;48.584;9.186;2023-07-24T11:01:17;6.40;;;5.95;;
27566;SDS011;15006;48.584;9.186;2023-07-24T11:03:44;6.35;;;5.80;;
27566;SDS011;15006;48.584;9.186;2023-07-24T11:06:14;7.85;;;6.13;;
27566;SDS011;15006;48.584;9.186;2023-07-24T11:08:50;6.13;;;5.65;;
27566;SDS011;15006;48.584;9.186;2023-07-24T11:11:18;8.10;;;5.80;;
27566;SDS011;15006;48.584;9.186;2023-07-24T11:13:44;8.73;;;6.07;;
27566;SDS011;15006;48.584;9.186;2023-07-24T11:16:10;6.93;;;5.60;;
27566;SDS011;15006;48.584;9.186;2023-07-24T11:18:49;7.38;;;6.25;;
27566;SDS011;15006;48.584;9.186;2023-07-24T11:21:20;6.10;;;5.57;;
27566;SDS011;15006;48.584;9.186;2023-07-24T11:23:48;5.90;;;5.40;;
27566;SDS011;15006;48.584;9.186;2023-07-24T11:26:21;7.55;;;6.75;;
27566;SDS011;15006;48.584;9.186;2023-07-24T11:28:49;6.65;;;6.05;;
27566;SDS011;15006;48.584;9.186;2023-07-24T11:31:16;9.02;;;6.50;;
27566;SDS011;15006;48.584;9.186;2023-07-24T11:33:46;7.10;;;6.47;;
27566;SDS011;15006;48.584;9.186;2023-07-24T11:36:13;6.90;;;6.22;;
27566;SDS011;15006;48.584;9.186;2023-07-24T11:38:40;6.90;;;6.00;;
27566;SDS011;15006;48.584;9.186;2023-07-24T11:41:07;6.57;;;5.97;;
27566;SDS011;15006;48.584;9.186;2023-07-24T11:43:34;6.57;;;5.57;;
27566;SDS011;15006;48.584;9.186;2023-07-24T11:46:00;6.13;;;5.70;;
27566;SDS011;15006;48.584;9.186;2023-07-24T11:48:26;6.95;;;6.35;;
27566;SDS011;15006;48.584;9.186;2023-07-24T11:50:55;7.38;;;5.72;;
27566;SDS011;15006;48.584;9.186;2023-07-24T11:53:23;8.32;;;6.22;;
27566;SDS011;15006;48.584;9.186;2023-07-24T11:55:50;6.30;;;5.80;;
27566;SDS011;15006;48.584;9.186;2023-07-24T11:58:17;5.53;;;5.03;;
27566;SDS011;15006;48.584;9.186;2023-07-24T12:00:45;5.60;;;5.20;;
27566;SDS011;15006;48.584;9.186;2023-07-24T12:03:13;6.00;;;5.43;;
27566;SDS011;15006;48.584;9.186;2023-07-24T12:05:51;5.90;;;5.40;;
27566;SDS011;15006;48.584;9.186;2023-07-24T12:08:18;5.35;;;4.95;;
27566;SDS011;15006;48.584;9.186;2023-07-24T12:10:48;6.38;;;5.13;;
27566;SDS011;15006;48.584;9.186;2023-07-24T12:13:14;5.13;;;4.72;;
27566;SDS011;15006;48.584;9.186;2023-07-24T12:15:40;4.93;;;4.63;;
27566;SDS011;15006;48.584;9.186;2023-07-24T12:18:06;5.28;;;4.80;;
27566;SDS011;15006;48.584;9.186;2023-07-24T12:20:33;4.68;;;4.43;;
27566;SDS011;15006;48.584;9.186;2023-07-24T12:23:00;4.22;;;3.92;;
27566;SDS011;15006;48.584;9.186;2023-07-24T12:25:26;7.43;;;4.88;;
27566;SDS011;15006;48.584;9.186;2023-07-24T12:27:52;4.50;;;4.25;;
27566;SDS011;15006;48.584;9.186;2023-07-24T12:30:18;4.18;;;3.97;;
27566;SDS011;15006;48.584;9.186;2023-07-24T12:32:45;5.03;;;4.63;;
27566;SDS011;15006;48.584;9.186;2023-07-24T12:35:10;4.50;;;4.20;;
27566;SDS011;15006;48.584;9.186;2023-07-24T12:37:37;4.28;;;3.92;;
27566;SDS011;15006;48.584;9.186;2023-07-24T12:40:04;3.92;;;3.72;;
27566;SDS011;15006;48.584;9.186;2023-07-24T12:42:31;5.72;;;4.22;;
27566;SDS011;15006;48.584;9.186;2023-07-24T12:44:58;4.53;;;4.15;;
27566;SDS011;15006;48.584;9.186;2023-07-24T12:47:24;4.40;;;4.10;;
27566;SDS011;15006;48.584;9.186;2023-07-24T12:49:50;3.92;;;3.72;;
27566;SDS011;15006;48.584;9.186;2023-07-24T12:52:17;3.70;;;3.50;;
27566;SDS011;15006;48.584;9.186;2023-07-24T12:54:43;3.80;;;3.50;;
27566;SDS011;15006;48.584;9.186;2023-07-24T12:57:09;4.65;;;3.97;;
27566;SDS011;15006;48.584;9.186;2023-07-24T12:59:35;4.40;;;4.10;;
27566;SDS011;15006;48.584;9.186;2023-07-24T13:02:01;3.70;;;3.50;;
27566;SDS011;15006;48.584;9.186;2023-07-24T13:04:27;3.75;;;3.55;;
27566;SDS011;15006;48.584;9.186;2023-07-24T13:06:53;4.50;;;4.20;;
27566;SDS011;15006;48.584;9.186;2023-07-24T13:09:19;4.05;;;3.75;;
27566;SDS011;15006;48.584;9.186;2023-07-24T13:11:45;5.20;;;4.70;;
27566;SDS011;15006;48.584;9.186;2023-07-24T13:14:14;4.07;;;3.78;;
27566;SDS011;15006;48.584;9.186;2023-07-24T13:16:40;3.80;;;3.55;;
27566;SDS011;15006;48.584;9.186;2023-07-24T13:19:06;7.18;;;3.80;;
27566;SDS011;15006;48.584;9.186;2023-07-24T13:21:32;4.40;;;3.70;;
27566;SDS011;15006;48.584;9.186;2023-07-24T13:23:58;6.22;;;3.55;;
27566;SDS011;15006;48.584;9.186;2023-07-24T13:26:24;4.00;;;3.47;;
27566;SDS011;15006;48.584;9.186;2023-07-24T13:28:50;3.60;;;3.40;;
27566;SDS011;15006;48.584;9.186;2023-07-24T13:31:17;3.90;;;3.60;;
27566;SDS011;15006;48.584;9.186;2023-07-24T13:33:45;3.80;;;3.58;;
27566;SDS011;15006;48.584;9.186;2023-07-24T13:36:11;5.50;;;3.42;;
27566;SDS011;15006;48.584;9.186;2023-07-24T13:38:37;3.63;;;3.33;;
27566;SDS011;15006;48.584;9.186;2023-07-24T13:41:04;3.85;;;3.60;;
27566;SDS011;15006;48.584;9.186;2023-07-24T13:43:31;3.42;;;3.22;;
27566;SDS011;15006;48.584;9.186;2023-07-24T13:45:58;3.40;;;3.20;;
27566;SDS011;15006;48.584;9.186;2023-07-24T13:48:24;3.25;;;3.05;;
27566;SDS011;15006;48.584;9.186;2023-07-24T13:50:52;3.22;;;3.03;;
27566;SDS011;15006;48.584;9.186;2023-07-24T13:53:18;3.42;;;3.22;;
27566;SDS011;15006;48.584;9.186;2023-07-24T13:55:45;3.58;;;3.28;;
27566;SDS011;15006;48.584;9.186;2023-07-24T13:58:11;3.55;;;3.35;;
27566;SDS011;15006;48.584;9.186;2023-07-24T14:00:36;3.17;;;2.97;;
27566;SDS011;15006;48.584;9.186;2023-07-24T14:03:02;3.63;;;3.35;;
27566;SDS011;15006;48.584;9.186;2023-07-24T14:05:29;3.42;;;3.22;;
27566;SDS011;15006;48.584;9.186;2023-07-24T14:07:55;2.90;;;2.78;;
27566;SDS011;15006;48.584;9.186;2023-07-24T14:10:21;3.55;;;3.25;;
27566;SDS011;15006;48.584;9.186;2023-07-24T14:12:47;3.95;;;3.15;;
27566;SDS011;15006;48.584;9.186;2023-07-24T14:15:13;3.70;;;3.40;;
27566;SDS011;15006;48.584;9.186;2023-07-24T14:17:39;2.85;;;2.65;;
27566;SDS011;15006;48.584;9.186;2023-07-24T14:20:06;3.10;;;2.90;;
27566;SDS011;15006;48.584;9.186;2023-07-24T14:22:33;2.80;;;2.70;;
27566;SDS011;15006;48.584;9.186;2023-07-24T14:24:59;3.65;;;3.28;;
27566;SDS011;15006;48.584;9.186;2023-07-24T14:27:26;2.80;;;2.70;;
27566;SDS011;15006;48.584;9.186;2023-07-24T14:29:52;3.03;;;2.80;;
27566;SDS011;15006;48.584;9.186;2023-07-24T14:32:19;2.80;;;2.70;;
27566;SDS011;15006;48.584;9.186;2023-07-24T14:34:49;3.45;;;3.20;;
27566;SDS011;15006;48.584;9.186;2023-07-24T14:37:17;2.88;;;2.67;;
27566;SDS011;15006;48.584;9.186;2023-07-24T14:39:43;4.25;;;2.83;;
27566;SDS011;15006;48.584;9.186;2023-07-24T14:42:12;2.70;;;2.50;;
27566;SDS011;15006;48.584;9.186;2023-07-24T14:44:38;3.15;;;2.97;;
27566;SDS011;15006;48.584;9.186;2023-07-24T14:47:05;2.70;;;2.60;;
27566;SDS011;15006;48.584;9.186;2023-07-24T14:49:32;2.47;;;2.35;;
27566;SDS011;15006;48.584;9.186;2023-07-24T14:51:58;2.63;;;2.53;;
27566;SDS011;15006;48.584;9.186;2023-07-24T14:54:24;2.72;;;2.53;;
27566;SDS011;15006;48.584;9.186;2023-07-24T14:56:50;2.75;;;2.55;;
27566;SDS011;15006;48.584;9.186;2023-07-24T14:59:16;2.90;;;2.60;;
27566;SDS011;15006;48.584;9.186;2023-07-24T15:01:42;3.30;;;3.10;;
27566;SDS011;15006;48.584;9.186;2023-07-24T15:04:08;4.10;;;3.00;;
27566;SDS011;15006;48.584;9.186;2023-07-24T15:06:34;2.90;;;2.70;;
27566;SDS011;15006;48.584;9.186;2023-07-24T15:09:00;3.03;;;2.83;;
27566;SDS011;15006;48.584;9.186;2023-07-24T15:11:27;3.50;;;3.20;;
27566;SDS011;15006;48.584;9.186;2023-07-24T15:13:55;3.28;;;3.08;;
27566;SDS011;15006;48.584;9.186;2023-07-24T15:16:24;3.05;;;2.85;;
27566;SDS011;15006;48.584;9.186;2023-07-24T15:18:58;3.25;;;3.05;;